sensor_id;sensor_type;location;lat;lon;timestamp;P1;durP1;ratioP1;P2;durP2;ratioP2
68989;SDS011;56046;47.270;11.368;2022-09-09T00:00:15;3.00;;;1.40;;
68989;SDS011;56046;47.270;11.368;2022-09-09T00:02:44;2.90;;;1.57;;
68989;SDS011;56046;47.270;11.368;2022-09-09T00:05:17;3.50;;;1.50;;
68989;SDS011;56046;47.270;11.368;2022-09-09T00:07:49;5.22;;;1.77;;
68989;SDS011;56046;47.270;11.368;2022-09-09T00:10:17;3.70;;;2.13;;
68989;SDS011;56046;47.270;11.368;2022-09-09T00:15:36;3.43;;;1.33;;
68989;SDS011;56046;47.270;11.368;2022-09-09T00:26:10;3.40;;;1.67;;
68989;SDS011;56046;47.270;11.368;2022-09-09T00:28:41;2.40;;;1.43;;
68989;SDS011;56046;47.270;11.368;2022-09-09T00:31:12;4.30;;;1.52;;
68989;SDS011;56046;47.270;11.368;2022-09-09T00:33:38;4.10;;;1.90;;
68989;SDS011;56046;47.270;11.368;2022-09-09T00:36:04;4.32;;;1.70;;
68989;SDS011;56046;47.270;11.368;2022-09-09T00:38:35;2.92;;;1.63;;
68989;SDS011;56046;47.270;11.368;2022-09-09T00:43:30;2.70;;;1.40;;
68989;SDS011;56046;47.270;11.368;2022-09-09T00:49:13;2.83;;;1.60;;
68989;SDS011;56046;47.270;11.368;2022-09-09T00:51:17;4.15;;;1.73;;
68989;SDS011;56046;47.270;11.368;2022-09-09T00:56:42;4.00;;;1.65;;
68989;SDS011;56046;47.270;11.368;2022-09-09T01:01:51;3.85;;;1.45;;
68989;SDS011;56046;47.270;11.368;2022-09-09T01:04:18;5.40;;;1.98;;
68989;SDS011;56046;47.270;11.368;2022-09-09T01:06:48;3.20;;;1.70;;
68989;SDS011;56046;47.270;11.368;2022-09-09T01:09:18;4.40;;;1.70;;
68989;SDS011;56046;47.270;11.368;2022-09-09T01:11:55;4.13;;;2.10;;
68989;SDS011;56046;47.270;11.368;2022-09-09T01:16:54;5.50;;;1.70;;
68989;SDS011;56046;47.270;11.368;2022-09-09T01:19:27;3.37;;;1.40;;
68989;SDS011;56046;47.270;11.368;2022-09-09T01:22:06;3.47;;;1.63;;
68989;SDS011;56046;47.270;11.368;2022-09-09T01:27:02;4.30;;;1.40;;
68989;SDS011;56046;47.270;11.368;2022-09-09T01:29:29;6.38;;;1.50;;
68989;SDS011;56046;47.270;11.368;2022-09-09T01:34:20;5.23;;;1.60;;
68989;SDS011;56046;47.270;11.368;2022-09-09T01:36:46;3.58;;;1.65;;
68989;SDS011;56046;47.270;11.368;2022-09-09T01:39:15;5.60;;;1.70;;
68989;SDS011;56046;47.270;11.368;2022-09-09T01:41:40;3.80;;;1.80;;
68989;SDS011;56046;47.270;11.368;2022-09-09T01:44:06;3.87;;;1.70;;
68989;SDS011;56046;47.270;11.368;2022-09-09T01:46:32;2.72;;;1.60;;
68989;SDS011;56046;47.270;11.368;2022-09-09T01:48:57;3.00;;;1.77;;
68989;SDS011;56046;47.270;11.368;2022-09-09T01:51:24;6.73;;;1.57;;
68989;SDS011;56046;47.270;11.368;2022-09-09T01:53:49;2.80;;;1.40;;
68989;SDS011;56046;47.270;11.368;2022-09-09T01:58:58;5.10;;;1.58;;
68989;SDS011;56046;47.270;11.368;2022-09-09T02:01:31;3.77;;;1.50;;
68989;SDS011;56046;47.270;11.368;2022-09-09T02:04:02;4.63;;;1.58;;
68989;SDS011;56046;47.270;11.368;2022-09-09T02:06:36;3.17;;;1.60;;
68989;SDS011;56046;47.270;11.368;2022-09-09T02:09:04;5.18;;;2.20;;
68989;SDS011;56046;47.270;11.368;2022-09-09T02:11:29;5.85;;;1.98;;
68989;SDS011;56046;47.270;11.368;2022-09-09T02:14:12;3.10;;;1.53;;
68989;SDS011;56046;47.270;11.368;2022-09-09T02:19:06;3.70;;;1.67;;
68989;SDS011;56046;47.270;11.368;2022-09-09T02:21:33;3.72;;;1.88;;
68989;SDS011;56046;47.270;11.368;2022-09-09T02:24:00;3.20;;;1.90;;
68989;SDS011;56046;47.270;11.368;2022-09-09T02:26:29;6.97;;;2.05;;
68989;SDS011;56046;47.270;11.368;2022-09-09T02:28:55;3.97;;;1.50;;
68989;SDS011;56046;47.270;11.368;2022-09-09T02:31:23;2.47;;;1.60;;
68989;SDS011;56046;47.270;11.368;2022-09-09T02:33:52;4.80;;;1.65;;
68989;SDS011;56046;47.270;11.368;2022-09-09T02:36:18;4.67;;;1.53;;
68989;SDS011;56046;47.270;11.368;2022-09-09T02:38:46;4.13;;;1.90;;
68989;SDS011;56046;47.270;11.368;2022-09-09T02:41:17;4.20;;;1.80;;
68989;SDS011;56046;47.270;11.368;2022-09-09T02:43:43;6.25;;;2.28;;
68989;SDS011;56046;47.270;11.368;2022-09-09T02:48:55;3.58;;;1.90;;
68989;SDS011;56046;47.270;11.368;2022-09-09T02:51:48;5.10;;;2.00;;
68989;SDS011;56046;47.270;11.368;2022-09-09T02:54:10;5.93;;;2.20;;
68989;SDS011;56046;47.270;11.368;2022-09-09T02:56:42;5.25;;;2.05;;
68989;SDS011;56046;47.270;11.368;2022-09-09T02:59:10;6.30;;;2.17;;
68989;SDS011;56046;47.270;11.368;2022-09-09T03:01:36;4.50;;;2.20;;
68989;SDS011;56046;47.270;11.368;2022-09-09T03:04:05;6.28;;;2.28;;
68989;SDS011;56046;47.270;11.368;2022-09-09T03:06:30;4.13;;;2.30;;
68989;SDS011;56046;47.270;11.368;2022-09-09T03:08:55;4.13;;;2.28;;
68989;SDS011;56046;47.270;11.368;2022-09-09T03:11:21;4.93;;;2.40;;
68989;SDS011;56046;47.270;11.368;2022-09-09T03:13:46;4.30;;;2.80;;
68989;SDS011;56046;47.270;11.368;2022-09-09T03:16:12;5.03;;;2.50;;
68989;SDS011;56046;47.270;11.368;2022-09-09T03:18:37;7.30;;;2.90;;
68989;SDS011;56046;47.270;11.368;2022-09-09T03:21:02;5.17;;;2.50;;
68989;SDS011;56046;47.270;11.368;2022-09-09T03:23:27;5.90;;;2.80;;
68989;SDS011;56046;47.270;11.368;2022-09-09T03:25:53;4.47;;;2.30;;
68989;SDS011;56046;47.270;11.368;2022-09-09T03:28:21;6.43;;;3.10;;
68989;SDS011;56046;47.270;11.368;2022-09-09T03:30:48;6.27;;;3.03;;
68989;SDS011;56046;47.270;11.368;2022-09-09T03:33:13;8.45;;;2.65;;
68989;SDS011;56046;47.270;11.368;2022-09-09T03:35:44;5.35;;;2.80;;
68989;SDS011;56046;47.270;11.368;2022-09-09T03:38:11;6.15;;;2.85;;
68989;SDS011;56046;47.270;11.368;2022-09-09T03:40:36;6.10;;;2.67;;
68989;SDS011;56046;47.270;11.368;2022-09-09T03:43:01;4.63;;;2.60;;
68989;SDS011;56046;47.270;11.368;2022-09-09T03:45:27;7.43;;;2.60;;
68989;SDS011;56046;47.270;11.368;2022-09-09T03:47:52;4.53;;;2.47;;
68989;SDS011;56046;47.270;11.368;2022-09-09T03:50:17;5.77;;;2.70;;
68989;SDS011;56046;47.270;11.368;2022-09-09T03:52:43;4.63;;;2.70;;
68989;SDS011;56046;47.270;11.368;2022-09-09T03:55:08;5.20;;;2.60;;
68989;SDS011;56046;47.270;11.368;2022-09-09T03:57:34;5.20;;;2.30;;
68989;SDS011;56046;47.270;11.368;2022-09-09T04:00:04;4.55;;;2.67;;
68989;SDS011;56046;47.270;11.368;2022-09-09T04:02:30;5.43;;;2.70;;
68989;SDS011;56046;47.270;11.368;2022-09-09T04:04:55;5.40;;;2.00;;
68989;SDS011;56046;47.270;11.368;2022-09-09T04:07:21;5.72;;;2.60;;
68989;SDS011;56046;47.270;11.368;2022-09-09T04:09:46;7.57;;;2.70;;
68989;SDS011;56046;47.270;11.368;2022-09-09T04:12:11;5.20;;;2.80;;
68989;SDS011;56046;47.270;11.368;2022-09-09T04:14:38;6.93;;;3.10;;
68989;SDS011;56046;47.270;11.368;2022-09-09T04:17:03;7.10;;;2.70;;
68989;SDS011;56046;47.270;11.368;2022-09-09T04:19:31;5.55;;;2.95;;
68989;SDS011;56046;47.270;11.368;2022-09-09T04:21:56;5.13;;;3.20;;
68989;SDS011;56046;47.270;11.368;2022-09-09T04:24:21;4.90;;;2.50;;
68989;SDS011;56046;47.270;11.368;2022-09-09T04:26:47;6.30;;;2.37;;
68989;SDS011;56046;47.270;11.368;2022-09-09T04:29:12;6.07;;;2.60;;
68989;SDS011;56046;47.270;11.368;2022-09-09T04:31:37;7.27;;;2.47;;
68989;SDS011;56046;47.270;11.368;2022-09-09T04:34:06;4.32;;;2.35;;
68989;SDS011;56046;47.270;11.368;2022-09-09T04:36:32;5.05;;;2.72;;
68989;SDS011;56046;47.270;11.368;2022-09-09T04:38:58;7.03;;;2.67;;
68989;SDS011;56046;47.270;11.368;2022-09-09T04:41:23;4.50;;;2.50;;
68989;SDS011;56046;47.270;11.368;2022-09-09T04:43:48;5.10;;;2.50;;
68989;SDS011;56046;47.270;11.368;2022-09-09T04:46:14;4.32;;;1.98;;
68989;SDS011;56046;47.270;11.368;2022-09-09T04:48:40;4.57;;;2.20;;
68989;SDS011;56046;47.270;11.368;2022-09-09T04:51:06;5.33;;;2.20;;
68989;SDS011;56046;47.270;11.368;2022-09-09T04:53:32;6.80;;;2.50;;
68989;SDS011;56046;47.270;11.368;2022-09-09T04:56:02;4.43;;;2.35;;
68989;SDS011;56046;47.270;11.368;2022-09-09T04:58:28;4.20;;;2.47;;
68989;SDS011;56046;47.270;11.368;2022-09-09T05:00:53;5.33;;;3.00;;
68989;SDS011;56046;47.270;11.368;2022-09-09T05:03:19;6.10;;;2.60;;
68989;SDS011;56046;47.270;11.368;2022-09-09T05:05:44;7.53;;;3.13;;
68989;SDS011;56046;47.270;11.368;2022-09-09T05:08:09;5.23;;;2.67;;
68989;SDS011;56046;47.270;11.368;2022-09-09T05:10:36;7.07;;;3.10;;
68989;SDS011;56046;47.270;11.368;2022-09-09T05:13:02;5.88;;;2.63;;
68989;SDS011;56046;47.270;11.368;2022-09-09T05:15:29;6.43;;;2.80;;
68989;SDS011;56046;47.270;11.368;2022-09-09T05:17:58;6.23;;;2.70;;
68989;SDS011;56046;47.270;11.368;2022-09-09T05:20:24;6.00;;;2.80;;
68989;SDS011;56046;47.270;11.368;2022-09-09T05:22:52;5.87;;;3.07;;
68989;SDS011;56046;47.270;11.368;2022-09-09T05:25:17;4.70;;;2.78;;
68989;SDS011;56046;47.270;11.368;2022-09-09T05:27:42;5.17;;;3.40;;
68989;SDS011;56046;47.270;11.368;2022-09-09T05:30:08;6.27;;;3.30;;
68989;SDS011;56046;47.270;11.368;2022-09-09T05:32:33;5.90;;;3.87;;
68989;SDS011;56046;47.270;11.368;2022-09-09T05:34:59;7.03;;;3.75;;
68989;SDS011;56046;47.270;11.368;2022-09-09T05:37:24;5.83;;;3.80;;
68989;SDS011;56046;47.270;11.368;2022-09-09T05:39:50;6.07;;;3.63;;
68989;SDS011;56046;47.270;11.368;2022-09-09T05:42:15;8.27;;;4.47;;
68989;SDS011;56046;47.270;11.368;2022-09-09T05:44:41;7.27;;;4.33;;
68989;SDS011;56046;47.270;11.368;2022-09-09T05:47:07;6.47;;;3.97;;
68989;SDS011;56046;47.270;11.368;2022-09-09T05:49:33;9.90;;;4.28;;
68989;SDS011;56046;47.270;11.368;2022-09-09T05:51:58;7.83;;;4.80;;
68989;SDS011;56046;47.270;11.368;2022-09-09T05:54:23;8.60;;;4.73;;
68989;SDS011;56046;47.270;11.368;2022-09-09T05:56:49;9.03;;;4.83;;
68989;SDS011;56046;47.270;11.368;2022-09-09T05:59:15;8.43;;;4.35;;
68989;SDS011;56046;47.270;11.368;2022-09-09T06:01:41;13.27;;;4.97;;
68989;SDS011;56046;47.270;11.368;2022-09-09T06:04:07;10.75;;;5.45;;
68989;SDS011;56046;47.270;11.368;2022-09-09T06:06:33;11.40;;;5.55;;
68989;SDS011;56046;47.270;11.368;2022-09-09T06:09:03;10.40;;;5.93;;
68989;SDS011;56046;47.270;11.368;2022-09-09T06:11:29;12.20;;;6.00;;
68989;SDS011;56046;47.270;11.368;2022-09-09T06:13:57;11.40;;;5.88;;
68989;SDS011;56046;47.270;11.368;2022-09-09T06:16:25;8.57;;;5.63;;
68989;SDS011;56046;47.270;11.368;2022-09-09T06:18:51;13.17;;;6.90;;
68989;SDS011;56046;47.270;11.368;2022-09-09T06:21:19;8.07;;;5.18;;
68989;SDS011;56046;47.270;11.368;2022-09-09T06:23:45;8.68;;;5.80;;
68989;SDS011;56046;47.270;11.368;2022-09-09T06:26:17;9.17;;;5.47;;
68989;SDS011;56046;47.270;11.368;2022-09-09T06:28:43;7.47;;;4.78;;
68989;SDS011;56046;47.270;11.368;2022-09-09T06:31:09;7.60;;;4.97;;
68989;SDS011;56046;47.270;11.368;2022-09-09T06:33:36;10.40;;;5.18;;
68989;SDS011;56046;47.270;11.368;2022-09-09T06:36:06;9.70;;;5.15;;
68989;SDS011;56046;47.270;11.368;2022-09-09T06:38:31;7.70;;;4.90;;
68989;SDS011;56046;47.270;11.368;2022-09-09T06:40:58;9.83;;;4.80;;
68989;SDS011;56046;47.270;11.368;2022-09-09T06:43:24;9.90;;;5.57;;
68989;SDS011;56046;47.270;11.368;2022-09-09T06:45:56;9.73;;;4.93;;
68989;SDS011;56046;47.270;11.368;2022-09-09T06:48:21;8.10;;;4.82;;
68989;SDS011;56046;47.270;11.368;2022-09-09T06:50:46;7.90;;;4.33;;
68989;SDS011;56046;47.270;11.368;2022-09-09T06:53:12;10.50;;;4.47;;
68989;SDS011;56046;47.270;11.368;2022-09-09T06:55:37;8.57;;;6.33;;
68989;SDS011;56046;47.270;11.368;2022-09-09T06:58:08;7.82;;;4.45;;
68989;SDS011;56046;47.270;11.368;2022-09-09T07:00:33;6.75;;;4.18;;
68989;SDS011;56046;47.270;11.368;2022-09-09T07:02:58;9.03;;;4.73;;
68989;SDS011;56046;47.270;11.368;2022-09-09T07:05:24;6.57;;;4.70;;
68989;SDS011;56046;47.270;11.368;2022-09-09T07:07:50;9.03;;;4.57;;
68989;SDS011;56046;47.270;11.368;2022-09-09T07:10:16;7.22;;;4.35;;
68989;SDS011;56046;47.270;11.368;2022-09-09T07:12:42;7.53;;;3.80;;
68989;SDS011;56046;47.270;11.368;2022-09-09T07:15:07;8.93;;;4.30;;
68989;SDS011;56046;47.270;11.368;2022-09-09T07:17:32;8.13;;;4.40;;
68989;SDS011;56046;47.270;11.368;2022-09-09T07:19:58;7.37;;;4.53;;
68989;SDS011;56046;47.270;11.368;2022-09-09T07:22:23;8.47;;;4.10;;
68989;SDS011;56046;47.270;11.368;2022-09-09T07:24:48;8.13;;;4.63;;
68989;SDS011;56046;47.270;11.368;2022-09-09T07:27:14;6.30;;;3.60;;
68989;SDS011;56046;47.270;11.368;2022-09-09T07:29:39;7.50;;;4.20;;
68989;SDS011;56046;47.270;11.368;2022-09-09T07:32:05;7.03;;;3.20;;
68989;SDS011;56046;47.270;11.368;2022-09-09T07:34:30;5.43;;;3.00;;
68989;SDS011;56046;47.270;11.368;2022-09-09T07:36:55;6.13;;;3.10;;
68989;SDS011;56046;47.270;11.368;2022-09-09T07:39:22;5.88;;;3.20;;
68989;SDS011;56046;47.270;11.368;2022-09-09T07:41:48;5.20;;;3.00;;
68989;SDS011;56046;47.270;11.368;2022-09-09T07:44:17;5.17;;;3.17;;
68989;SDS011;56046;47.270;11.368;2022-09-09T07:46:43;4.25;;;2.65;;
68989;SDS011;56046;47.270;11.368;2022-09-09T07:49:10;4.65;;;3.15;;
68989;SDS011;56046;47.270;11.368;2022-09-09T07:51:37;4.43;;;2.70;;
68989;SDS011;56046;47.270;11.368;2022-09-09T07:54:06;3.33;;;2.20;;
68989;SDS011;56046;47.270;11.368;2022-09-09T07:56:31;3.92;;;2.30;;
68989;SDS011;56046;47.270;11.368;2022-09-09T07:58:57;4.67;;;2.60;;
68989;SDS011;56046;47.270;11.368;2022-09-09T08:01:30;5.20;;;2.53;;
68989;SDS011;56046;47.270;11.368;2022-09-09T08:03:59;4.07;;;2.63;;
68989;SDS011;56046;47.270;11.368;2022-09-09T08:06:26;6.45;;;2.78;;
68989;SDS011;56046;47.270;11.368;2022-09-09T08:08:52;4.57;;;3.07;;
68989;SDS011;56046;47.270;11.368;2022-09-09T08:11:19;5.33;;;2.60;;
68989;SDS011;56046;47.270;11.368;2022-09-09T08:13:44;4.40;;;2.70;;
68989;SDS011;56046;47.270;11.368;2022-09-09T08:18:35;4.20;;;2.70;;
68989;SDS011;56046;47.270;11.368;2022-09-09T08:21:07;4.13;;;2.80;;
68989;SDS011;56046;47.270;11.368;2022-09-09T08:23:34;4.28;;;3.00;;
68989;SDS011;56046;47.270;11.368;2022-09-09T08:26:06;5.43;;;3.08;;
68989;SDS011;56046;47.270;11.368;2022-09-09T08:28:32;6.73;;;3.20;;
68989;SDS011;56046;47.270;11.368;2022-09-09T08:31:07;5.10;;;3.33;;
68989;SDS011;56046;47.270;11.368;2022-09-09T08:33:33;5.73;;;2.90;;
68989;SDS011;56046;47.270;11.368;2022-09-09T08:35:58;5.30;;;2.80;;
68989;SDS011;56046;47.270;11.368;2022-09-09T08:38:23;4.37;;;2.53;;
68989;SDS011;56046;47.270;11.368;2022-09-09T08:40:49;4.53;;;2.70;;
68989;SDS011;56046;47.270;11.368;2022-09-09T08:43:18;4.10;;;2.97;;
68989;SDS011;56046;47.270;11.368;2022-09-09T08:46:01;7.10;;;3.08;;
68989;SDS011;56046;47.270;11.368;2022-09-09T08:48:38;4.75;;;3.42;;
68989;SDS011;56046;47.270;11.368;2022-09-09T08:51:06;4.13;;;2.67;;
68989;SDS011;56046;47.270;11.368;2022-09-09T08:53:42;5.23;;;3.23;;
68989;SDS011;56046;47.270;11.368;2022-09-09T08:56:09;4.93;;;2.85;;
68989;SDS011;56046;47.270;11.368;2022-09-09T08:58:39;6.50;;;2.97;;
68989;SDS011;56046;47.270;11.368;2022-09-09T09:06:45;3.97;;;2.57;;
68989;SDS011;56046;47.270;11.368;2022-09-09T09:09:15;4.32;;;3.00;;
68989;SDS011;56046;47.270;11.368;2022-09-09T09:12:07;4.25;;;2.55;;
68989;SDS011;56046;47.270;11.368;2022-09-09T09:14:29;4.68;;;2.60;;
68989;SDS011;56046;47.270;11.368;2022-09-09T09:16:59;4.07;;;2.92;;
68989;SDS011;56046;47.270;11.368;2022-09-09T09:19:25;4.57;;;2.40;;
68989;SDS011;56046;47.270;11.368;2022-09-09T09:27:18;3.90;;;2.50;;
68989;SDS011;56046;47.270;11.368;2022-09-09T09:29:46;5.70;;;3.40;;
68989;SDS011;56046;47.270;11.368;2022-09-09T09:32:15;5.53;;;2.87;;
68989;SDS011;56046;47.270;11.368;2022-09-09T09:34:41;7.15;;;2.90;;
68989;SDS011;56046;47.270;11.368;2022-09-09T09:37:12;6.10;;;3.10;;
68989;SDS011;56046;47.270;11.368;2022-09-09T09:39:42;5.07;;;2.90;;
68989;SDS011;56046;47.270;11.368;2022-09-09T09:42:17;7.60;;;3.63;;
68989;SDS011;56046;47.270;11.368;2022-09-09T09:44:43;4.77;;;2.67;;
68989;SDS011;56046;47.270;11.368;2022-09-09T09:47:12;5.45;;;3.03;;
68989;SDS011;56046;47.270;11.368;2022-09-09T09:49:38;4.45;;;2.33;;
68989;SDS011;56046;47.270;11.368;2022-09-09T09:52:05;5.90;;;3.10;;
68989;SDS011;56046;47.270;11.368;2022-09-09T09:54:34;5.55;;;3.35;;
68989;SDS011;56046;47.270;11.368;2022-09-09T09:57:11;5.63;;;3.00;;
68989;SDS011;56046;47.270;11.368;2022-09-09T09:59:37;7.43;;;3.72;;
68989;SDS011;56046;47.270;11.368;2022-09-09T10:04:40;7.00;;;4.93;;
68989;SDS011;56046;47.270;11.368;2022-09-09T10:07:13;8.77;;;5.05;;
68989;SDS011;56046;47.270;11.368;2022-09-09T10:09:41;5.68;;;3.70;;
68989;SDS011;56046;47.270;11.368;2022-09-09T10:17:36;5.60;;;3.10;;
68989;SDS011;56046;47.270;11.368;2022-09-09T10:22:48;4.80;;;2.95;;
68989;SDS011;56046;47.270;11.368;2022-09-09T10:25:30;3.53;;;2.20;;
68989;SDS011;56046;47.270;11.368;2022-09-09T10:38:17;3.50;;;2.40;;
68989;SDS011;56046;47.270;11.368;2022-09-09T10:40:46;3.00;;;1.97;;
68989;SDS011;56046;47.270;11.368;2022-09-09T10:43:26;3.42;;;2.20;;
68989;SDS011;56046;47.270;11.368;2022-09-09T10:48:34;4.65;;;2.78;;
68989;SDS011;56046;47.270;11.368;2022-09-09T10:53:50;5.27;;;2.87;;
68989;SDS011;56046;47.270;11.368;2022-09-09T10:56:17;5.22;;;2.70;;
68989;SDS011;56046;47.270;11.368;2022-09-09T10:58:45;4.80;;;3.30;;
68989;SDS011;56046;47.270;11.368;2022-09-09T11:01:21;3.80;;;2.47;;
68989;SDS011;56046;47.270;11.368;2022-09-09T11:03:49;4.00;;;2.58;;
68989;SDS011;56046;47.270;11.368;2022-09-09T11:06:18;4.23;;;2.50;;
68989;SDS011;56046;47.270;11.368;2022-09-09T11:08:44;4.72;;;3.08;;
68989;SDS011;56046;47.270;11.368;2022-09-09T11:11:20;5.13;;;3.00;;
68989;SDS011;56046;47.270;11.368;2022-09-09T11:18:48;2.67;;;2.00;;
68989;SDS011;56046;47.270;11.368;2022-09-09T11:21:22;4.60;;;2.70;;
68989;SDS011;56046;47.270;11.368;2022-09-09T11:24:10;3.67;;;2.15;;
68989;SDS011;56046;47.270;11.368;2022-09-09T11:26:58;4.10;;;2.00;;
68989;SDS011;56046;47.270;11.368;2022-09-09T11:37:14;4.72;;;2.97;;
68989;SDS011;56046;47.270;11.368;2022-09-09T11:42:23;3.47;;;2.00;;
68989;SDS011;56046;47.270;11.368;2022-09-09T11:44:49;4.43;;;2.40;;
68989;SDS011;56046;47.270;11.368;2022-09-09T11:47:30;3.40;;;2.13;;
68989;SDS011;56046;47.270;11.368;2022-09-09T11:52:37;3.13;;;2.30;;
68989;SDS011;56046;47.270;11.368;2022-09-09T11:55:36;2.65;;;2.13;;
68989;SDS011;56046;47.270;11.368;2022-09-09T12:00:35;3.13;;;2.17;;
68989;SDS011;56046;47.270;11.368;2022-09-09T12:03:02;3.88;;;1.95;;
68989;SDS011;56046;47.270;11.368;2022-09-09T12:05:38;6.18;;;2.30;;
68989;SDS011;56046;47.270;11.368;2022-09-09T12:08:04;5.40;;;2.50;;
68989;SDS011;56046;47.270;11.368;2022-09-09T12:10:30;6.72;;;2.92;;
68989;SDS011;56046;47.270;11.368;2022-09-09T12:13:07;4.22;;;2.10;;
68989;SDS011;56046;47.270;11.368;2022-09-09T12:15:34;3.50;;;2.33;;
68989;SDS011;56046;47.270;11.368;2022-09-09T12:17:59;4.73;;;2.37;;
68989;SDS011;56046;47.270;11.368;2022-09-09T12:23:09;3.10;;;2.27;;
68989;SDS011;56046;47.270;11.368;2022-09-09T12:30:43;3.23;;;1.90;;
68989;SDS011;56046;47.270;11.368;2022-09-09T12:33:12;2.42;;;1.65;;
68989;SDS011;56046;47.270;11.368;2022-09-09T12:35:38;3.30;;;1.63;;
68989;SDS011;56046;47.270;11.368;2022-09-09T12:38:03;2.50;;;1.80;;
68989;SDS011;56046;47.270;11.368;2022-09-09T12:40:32;2.72;;;1.58;;
68989;SDS011;56046;47.270;11.368;2022-09-09T12:43:00;3.70;;;1.30;;
68989;SDS011;56046;47.270;11.368;2022-09-09T12:45:27;2.95;;;1.70;;
68989;SDS011;56046;47.270;11.368;2022-09-09T12:50:20;3.37;;;1.93;;
68989;SDS011;56046;47.270;11.368;2022-09-09T12:52:46;2.30;;;1.47;;
68989;SDS011;56046;47.270;11.368;2022-09-09T12:55:16;3.55;;;1.70;;
68989;SDS011;56046;47.270;11.368;2022-09-09T12:57:41;3.75;;;2.08;;
68989;SDS011;56046;47.270;11.368;2022-09-09T13:00:12;3.60;;;1.77;;
68989;SDS011;56046;47.270;11.368;2022-09-09T13:02:45;5.07;;;1.80;;
68989;SDS011;56046;47.270;11.368;2022-09-09T13:05:44;2.97;;;2.00;;
68989;SDS011;56046;47.270;11.368;2022-09-09T13:10:28;2.77;;;1.80;;
68989;SDS011;56046;47.270;11.368;2022-09-09T13:12:56;2.85;;;1.67;;
68989;SDS011;56046;47.270;11.368;2022-09-09T13:15:23;5.50;;;2.08;;
68989;SDS011;56046;47.270;11.368;2022-09-09T13:17:55;6.35;;;2.00;;
68989;SDS011;56046;47.270;11.368;2022-09-09T13:20:21;4.10;;;2.33;;
68989;SDS011;56046;47.270;11.368;2022-09-09T13:22:47;4.80;;;2.57;;
68989;SDS011;56046;47.270;11.368;2022-09-09T13:27:50;4.05;;;2.63;;
68989;SDS011;56046;47.270;11.368;2022-09-09T13:30:28;5.22;;;2.78;;
68989;SDS011;56046;47.270;11.368;2022-09-09T13:38:13;4.93;;;2.95;;
68989;SDS011;56046;47.270;11.368;2022-09-09T13:40:39;4.78;;;3.00;;
68989;SDS011;56046;47.270;11.368;2022-09-09T13:43:04;4.27;;;2.27;;
68989;SDS011;56046;47.270;11.368;2022-09-09T13:45:30;5.53;;;3.25;;
68989;SDS011;56046;47.270;11.368;2022-09-09T13:47:55;5.17;;;2.53;;
68989;SDS011;56046;47.270;11.368;2022-09-09T13:50:26;5.20;;;2.87;;
68989;SDS011;56046;47.270;11.368;2022-09-09T13:52:52;4.75;;;3.05;;
68989;SDS011;56046;47.270;11.368;2022-09-09T13:55:18;5.30;;;3.00;;
68989;SDS011;56046;47.270;11.368;2022-09-09T14:00:18;4.50;;;2.50;;
68989;SDS011;56046;47.270;11.368;2022-09-09T14:02:43;4.30;;;2.30;;
68989;SDS011;56046;47.270;11.368;2022-09-09T14:05:09;4.97;;;2.53;;
68989;SDS011;56046;47.270;11.368;2022-09-09T14:07:34;4.05;;;2.25;;
68989;SDS011;56046;47.270;11.368;2022-09-09T14:09:59;3.00;;;1.87;;
68989;SDS011;56046;47.270;11.368;2022-09-09T14:12:25;3.77;;;2.17;;
68989;SDS011;56046;47.270;11.368;2022-09-09T14:14:50;2.43;;;1.70;;
68989;SDS011;56046;47.270;11.368;2022-09-09T14:17:15;3.37;;;2.00;;
68989;SDS011;56046;47.270;11.368;2022-09-09T14:19:41;3.13;;;2.20;;
68989;SDS011;56046;47.270;11.368;2022-09-09T14:22:06;2.40;;;1.70;;
68989;SDS011;56046;47.270;11.368;2022-09-09T14:24:31;2.35;;;1.60;;
68989;SDS011;56046;47.270;11.368;2022-09-09T14:26:57;3.10;;;1.50;;
68989;SDS011;56046;47.270;11.368;2022-09-09T14:29:22;4.03;;;1.30;;
68989;SDS011;56046;47.270;11.368;2022-09-09T14:31:47;1.50;;;1.20;;
68989;SDS011;56046;47.270;11.368;2022-09-09T14:34:12;2.27;;;1.63;;
68989;SDS011;56046;47.270;11.368;2022-09-09T14:36:39;2.45;;;1.30;;
68989;SDS011;56046;47.270;11.368;2022-09-09T14:39:05;1.90;;;1.23;;
68989;SDS011;56046;47.270;11.368;2022-09-09T14:41:31;2.87;;;1.10;;
68989;SDS011;56046;47.270;11.368;2022-09-09T14:43:56;2.07;;;1.50;;
68989;SDS011;56046;47.270;11.368;2022-09-09T14:46:22;2.40;;;1.00;;
68989;SDS011;56046;47.270;11.368;2022-09-09T14:48:48;1.90;;;1.10;;
68989;SDS011;56046;47.270;11.368;2022-09-09T14:51:15;2.53;;;1.40;;
68989;SDS011;56046;47.270;11.368;2022-09-09T14:53:41;1.55;;;1.25;;
68989;SDS011;56046;47.270;11.368;2022-09-09T14:56:07;1.80;;;1.23;;
68989;SDS011;56046;47.270;11.368;2022-09-09T14:58:33;2.80;;;1.15;;
68989;SDS011;56046;47.270;11.368;2022-09-09T15:01:06;1.55;;;1.10;;
68989;SDS011;56046;47.270;11.368;2022-09-09T15:03:33;2.33;;;0.97;;
68989;SDS011;56046;47.270;11.368;2022-09-09T15:05:58;1.58;;;1.10;;
68989;SDS011;56046;47.270;11.368;2022-09-09T15:08:24;2.60;;;1.93;;
68989;SDS011;56046;47.270;11.368;2022-09-09T15:10:49;2.37;;;1.10;;
68989;SDS011;56046;47.270;11.368;2022-09-09T15:13:15;1.85;;;1.00;;
68989;SDS011;56046;47.270;11.368;2022-09-09T15:15:42;1.50;;;1.10;;
68989;SDS011;56046;47.270;11.368;2022-09-09T15:18:07;1.63;;;0.90;;
68989;SDS011;56046;47.270;11.368;2022-09-09T15:20:32;1.90;;;1.17;;
68989;SDS011;56046;47.270;11.368;2022-09-09T15:22:57;1.53;;;0.90;;
68989;SDS011;56046;47.270;11.368;2022-09-09T15:25:23;1.77;;;1.10;;
68989;SDS011;56046;47.270;11.368;2022-09-09T15:27:48;2.23;;;1.20;;
68989;SDS011;56046;47.270;11.368;2022-09-09T15:30:14;2.83;;;1.23;;
68989;SDS011;56046;47.270;11.368;2022-09-09T15:32:39;1.20;;;0.80;;
68989;SDS011;56046;47.270;11.368;2022-09-09T15:35:04;2.20;;;1.03;;
68989;SDS011;56046;47.270;11.368;2022-09-09T15:37:30;3.40;;;1.13;;
68989;SDS011;56046;47.270;11.368;2022-09-09T15:39:55;1.38;;;1.00;;
68989;SDS011;56046;47.270;11.368;2022-09-09T15:42:23;2.17;;;1.30;;
68989;SDS011;56046;47.270;11.368;2022-09-09T15:44:50;2.25;;;1.02;;
68989;SDS011;56046;47.270;11.368;2022-09-09T15:47:15;1.50;;;1.00;;
68989;SDS011;56046;47.270;11.368;2022-09-09T15:49:41;2.13;;;1.17;;
68989;SDS011;56046;47.270;11.368;2022-09-09T15:52:08;1.80;;;1.07;;
68989;SDS011;56046;47.270;11.368;2022-09-09T15:54:35;1.50;;;1.17;;
68989;SDS011;56046;47.270;11.368;2022-09-09T15:57:01;1.42;;;1.20;;
68989;SDS011;56046;47.270;11.368;2022-09-09T15:59:27;1.40;;;1.10;;
68989;SDS011;56046;47.270;11.368;2022-09-09T16:01:53;2.30;;;1.10;;
68989;SDS011;56046;47.270;11.368;2022-09-09T16:04:19;2.00;;;0.95;;
68989;SDS011;56046;47.270;11.368;2022-09-09T16:07:21;5.05;;;1.42;;
68989;SDS011;56046;47.270;11.368;2022-09-09T16:09:40;2.88;;;1.40;;
68989;SDS011;56046;47.270;11.368;2022-09-09T16:12:05;1.70;;;1.20;;
68989;SDS011;56046;47.270;11.368;2022-09-09T16:14:36;3.83;;;1.17;;
68989;SDS011;56046;47.270;11.368;2022-09-09T16:17:03;2.42;;;1.40;;
68989;SDS011;56046;47.270;11.368;2022-09-09T16:19:30;2.63;;;1.30;;
68989;SDS011;56046;47.270;11.368;2022-09-09T16:21:56;2.37;;;1.47;;
68989;SDS011;56046;47.270;11.368;2022-09-09T16:24:22;3.40;;;1.00;;
68989;SDS011;56046;47.270;11.368;2022-09-09T16:26:49;2.53;;;1.35;;
68989;SDS011;56046;47.270;11.368;2022-09-09T16:29:15;2.95;;;1.63;;
68989;SDS011;56046;47.270;11.368;2022-09-09T16:31:41;2.40;;;1.50;;
68989;SDS011;56046;47.270;11.368;2022-09-09T16:34:07;2.63;;;1.30;;
68989;SDS011;56046;47.270;11.368;2022-09-09T16:36:33;2.58;;;1.52;;